createdAt,value
2023-02-26T00:06:01.796Z,64.69
2023-02-26T00:16:29.781Z,64.53
2023-02-26T00:26:51.025Z,64.81
2023-02-26T00:37:24.366Z,64.81
2023-02-26T00:48:00.886Z,65.13
2023-02-26T00:58:21.916Z,64.51
2023-02-26T01:08:51.222Z,65.23
2023-02-26T01:19:50.584Z,64.54
2023-02-26T01:30:12.408Z,65.21
2023-02-26T01:40:45.328Z,65.40
2023-02-26T01:51:06.578Z,65.02
2023-02-26T02:01:28.016Z,65.54
2023-02-26T02:12:15.690Z,65.38
2023-02-26T02:22:53.710Z,65.67
2023-02-26T02:33:18.690Z,65.20
2023-02-26T02:43:41.388Z,65.72
2023-02-26T02:54:08.869Z,65.73
2023-02-26T03:04:30.841Z,66.21
2023-02-26T03:14:52.076Z,65.31
2023-02-26T03:25:18.048Z,65.57
2023-02-26T03:36:17.884Z,66.02
2023-02-26T03:46:52.752Z,65.94
2023-02-26T03:57:15.166Z,65.90
2023-02-26T04:07:59.797Z,66.05
2023-02-26T04:18:23.688Z,65.90
2023-02-26T04:28:44.996Z,65.12
2023-02-26T04:39:06.370Z,65.42
2023-02-26T04:49:28.127Z,65.31
2023-02-26T04:59:49.341Z,66.33
2023-02-26T05:10:12.179Z,66.02
2023-02-26T05:20:58.337Z,66.01
2023-02-26T05:31:20.217Z,65.12
2023-02-26T05:41:41.371Z,65.28
2023-02-26T05:52:03.234Z,66.02
2023-02-26T06:02:24.271Z,65.85
2023-02-26T06:12:45.731Z,65.17
2023-02-26T06:23:06.753Z,66.03
2023-02-26T06:33:28.022Z,65.79
2023-02-26T06:43:49.335Z,65.91
2023-02-26T06:54:10.442Z,65.46
2023-02-26T07:04:31.711Z,66.35
2023-02-26T07:14:52.944Z,66.17
2023-02-26T07:25:14.539Z,65.40
2023-02-26T07:35:36.368Z,66.20
2023-02-26T07:45:57.437Z,65.70
2023-02-26T07:56:18.954Z,65.86
2023-02-26T08:06:40.235Z,65.91
2023-02-26T08:17:01.985Z,65.79
2023-02-26T08:27:23.174Z,66.10
2023-02-26T08:37:44.443Z,65.73
2023-02-26T08:48:05.697Z,65.88
2023-02-26T08:58:26.862Z,65.21
2023-02-26T09:08:48.029Z,65.55
2023-02-26T09:19:09.732Z,65.83
2023-02-26T09:29:30.968Z,65.61
2023-02-26T09:39:54.612Z,64.97
2023-02-26T09:50:24.051Z,65.82
2023-02-26T10:01:13.127Z,65.31
2023-02-26T10:11:40.070Z,64.88
2023-02-26T10:22:24.621Z,64.93
2023-02-26T10:33:02.498Z,64.74
2023-02-26T10:43:28.175Z,65.03
2023-02-26T10:53:55.891Z,64.91
2023-02-26T11:04:26.349Z,64.64
2023-02-26T11:14:48.962Z,64.77
2023-02-26T11:25:14.369Z,64.33
2023-02-26T11:35:35.808Z,64.32
2023-02-26T11:46:01.572Z,64.93
2023-02-26T11:56:40.683Z,65.14
2023-02-26T12:07:01.955Z,65.02
2023-02-26T12:17:48.811Z,65.04
2023-02-26T12:28:41.783Z,65.70
2023-02-26T12:39:24.776Z,65.58
2023-02-26T12:49:48.739Z,65.75
2023-02-26T13:00:13.110Z,66.30
2023-02-26T13:10:53.341Z,65.71
2023-02-26T13:21:24.223Z,65.26
2023-02-26T13:31:47.037Z,66.03
2023-02-26T13:42:33.265Z,66.04
2023-02-26T13:52:57.407Z,66.13
2023-02-26T14:03:21.301Z,65.92
2023-02-26T14:13:42.484Z,65.62
2023-02-26T14:24:11.460Z,65.69
2023-02-26T14:34:39.150Z,65.96
2023-02-26T14:45:20.845Z,65.88
2023-02-26T14:55:46.202Z,66.07
2023-02-26T15:06:29.562Z,65.79
2023-02-26T15:17:18.616Z,65.92
2023-02-26T15:27:39.664Z,66.16
2023-02-26T15:38:02.667Z,65.95
2023-02-26T15:48:26.696Z,65.83
2023-02-26T15:58:55.330Z,66.08
2023-02-26T16:09:31.288Z,65.78
2023-02-26T16:19:53.879Z,65.77
2023-02-26T16:30:19.502Z,65.02
2023-02-26T16:40:41.820Z,65.66
2023-02-26T16:51:07.225Z,65.69
2023-02-26T17:01:28.787Z,65.08
2023-02-26T17:11:50.111Z,65.31
2023-02-26T17:22:17.898Z,64.98
2023-02-26T17:32:39.277Z,65.26
2023-02-26T17:43:00.403Z,65.01
2023-02-26T17:53:24.000Z,64.94
2023-02-26T18:03:45.293Z,65.18
2023-02-26T18:14:06.853Z,65.77
2023-02-26T18:24:28.302Z,65.37
2023-02-26T18:34:51.024Z,65.14
2023-02-26T18:45:12.469Z,64.85
2023-02-26T18:55:36.885Z,65.31
2023-02-26T19:06:00.100Z,65.74
2023-02-26T19:16:23.025Z,66.06
2023-02-26T19:26:44.761Z,65.26
2023-02-26T19:37:05.933Z,65.49
2023-02-26T19:47:27.598Z,66.05
2023-02-26T19:57:49.368Z,65.76
2023-02-26T20:08:11.384Z,66.26
2023-02-26T20:18:33.680Z,66.08
2023-02-26T20:28:54.698Z,66.32
2023-02-26T20:39:16.040Z,65.78
2023-02-26T20:49:37.066Z,66.13
2023-02-26T20:59:59.228Z,65.91
2023-02-26T21:10:20.574Z,66.39
2023-02-26T21:20:41.837Z,65.99
2023-02-26T21:31:03.169Z,66.51
2023-02-26T21:41:24.247Z,66.79
2023-02-26T21:51:45.718Z,66.19
2023-02-26T22:02:07.284Z,66.28
2023-02-26T22:12:28.348Z,66.39
2023-02-26T22:22:49.873Z,66.64
2023-02-26T22:33:11.001Z,66.71
2023-02-26T22:43:32.046Z,66.71
2023-02-26T22:53:53.387Z,66.24
2023-02-26T23:04:14.831Z,66.63
2023-02-26T23:14:36.324Z,67.07
2023-02-26T23:24:57.618Z,66.80
2023-02-26T23:35:18.823Z,66.86
2023-02-26T23:45:39.990Z,66.65
2023-02-26T23:56:01.377Z,66.79
